Time;durP1;ratioP1;P1;durP2;ratioP2;P2;SDS_P1;SDS_P2;PMS_P1;PMS_P2;Temp;Humidity;BMP_temperature;BMP_pressure;BME280_temperature;BME280_humidity;BME280_pressure;Samples;Min_cycle;Max_cycle;Signal;HPM_P1;HPM_P2
2021/04/12 00:00:42;;;;;;;60.70;37.58;;;;;;;14.61;46.35;72203.00;5014524;28;20041;-87
2021/04/12 00:03:25;;;;;;;61.17;33.28;;;;;;;14.96;46.99;72246.44;5012847;28;20091;-87
2021/04/12 00:05:57;;;;;;;54.42;34.15;;;;;;;14.84;47.08;72232.09;5006597;28;20026;-88
2021/04/12 00:08:44;;;;;;;55.25;35.00;;;;;;;14.80;47.43;72227.31;5016359;28;20033;-87
2021/04/12 00:11:14;;;;;;;67.82;36.08;;;;;;;14.74;47.38;72217.97;5018804;28;20029;-87
2021/04/12 00:14:10;;;;;;;48.25;32.88;;;;;;;13.94;47.45;72128.72;5000096;28;20038;-88
2021/04/12 00:16:56;;;;;;;60.33;33.20;;;;;;;14.03;47.75;72139.47;4995228;28;20196;-88
2021/04/12 00:19:29;;;;;;;53.10;32.63;;;;;;;14.78;47.96;72226.13;4995451;28;20026;-88
2021/04/12 00:22:05;;;;;;;57.40;33.67;;;;;;;14.54;48.37;72198.00;5012018;28;20032;-87
2021/04/12 00:24:56;;;;;;;62.25;33.15;;;;;;;14.48;49.40;72191.44;5015134;28;20021;-88
2021/04/12 00:27:51;;;;;;;57.75;33.90;;;;;;;14.60;47.70;72199.66;5014946;28;20124;-87
2021/04/12 00:30:27;;;;;;;59.97;35.45;;;;;;;14.41;47.85;72182.47;5033086;28;20536;-87
2021/04/12 00:32:59;;;;;;;70.97;35.17;;;;;;;14.31;48.32;72168.34;5015934;28;20533;-87
2021/04/12 00:35:40;;;;;;;53.67;34.60;;;;;;;14.39;48.46;72180.69;5015914;28;20387;-87
2021/04/12 00:38:32;;;;;;;55.47;34.28;;;;;;;14.50;48.41;72193.81;5015702;28;20037;-87
2021/04/12 00:41:17;;;;;;;58.08;32.70;;;;;;;14.69;47.81;72211.97;5016121;28;20406;-87
2021/04/12 00:43:52;;;;;;;50.67;34.20;;;;;;;14.88;47.71;72236.88;5015293;28;20110;-87
2021/04/12 00:47:01;;;;;;;50.35;29.05;;;;;;;15.11;45.91;72263.78;5021109;28;20503;-87
2021/04/12 00:49:35;;;;;;;46.22;28.58;;;;;;;15.22;44.33;72276.31;4955736;28;20110;-88
2021/04/12 00:52:29;;;;;;;46.95;28.67;;;;;;;15.36;44.56;72289.69;5023334;28;20046;-87
2021/04/12 00:55:20;;;;;;;46.03;26.13;;;;;;;15.53;43.03;72311.59;5005710;28;20041;-87
2021/04/12 00:58:10;;;;;;;39.85;25.50;;;;;;;15.75;42.88;72331.75;5013124;28;20022;-88
2021/04/12 01:00:46;;;;;;;42.08;26.25;;;;;;;15.93;42.90;72354.88;5020730;28;20124;-87
2021/04/12 01:03:41;;;;;;;43.13;24.40;;;;;;;15.96;42.09;72359.06;5034129;28;20084;-87
2021/04/12 01:06:17;;;;;;;34.45;23.02;;;;;;;15.90;42.13;72351.88;5032303;28;20133;-88
2021/04/12 01:09:38;;;;;;;40.45;21.23;;;;;;;14.43;42.27;72182.69;5029216;28;20053;-87
2021/04/12 01:12:15;;;;;;;35.25;20.17;;;;;;;15.92;41.12;72351.50;4994203;28;20037;-86
2021/04/12 01:15:01;;;;;;;34.08;22.00;;;;;;;16.09;41.21;72376.19;5020261;28;20133;-87
2021/04/12 01:17:46;;;;;;;40.42;20.45;;;;;;;16.31;40.73;72398.53;5026413;28;20049;-87
2021/04/12 01:21:01;;;;;;;37.10;19.80;;;;;;;16.50;40.76;72421.28;5017022;28;20021;-87
2021/04/12 01:23:49;;;;;;;27.35;18.38;;;;;;;16.74;39.76;72448.78;5015711;28;20080;-87
2021/04/12 01:27:04;;;;;;;29.50;19.08;;;;;;;16.82;40.28;72455.00;5015369;28;20032;-88
2021/04/12 01:30:04;;;;;;;31.95;18.60;;;;;;;16.52;40.31;72420.88;5021756;28;20030;-88
2021/04/12 01:33:11;;;;;;;28.60;15.70;;;;;;;16.05;39.49;72372.00;5014530;28;20114;-88
2021/04/12 01:36:14;;;;;;;26.52;15.77;;;;;;;16.32;39.66;72400.34;5030623;28;20113;-87
2021/04/12 01:38:58;;;;;;;26.38;16.55;;;;;;;16.16;39.29;72381.78;5031545;28;20566;-86
2021/04/12 01:42:00;;;;;;;21.05;15.25;;;;;;;15.93;39.27;72354.88;5015715;28;20036;-87
2021/04/12 01:44:48;;;;;;;25.50;16.73;;;;;;;16.08;39.35;72375.00;5032073;28;20025;-88
2021/04/12 01:47:30;;;;;;;28.77;16.50;;;;;;;16.73;39.60;72450.38;5014247;28;20042;-89
2021/04/12 01:50:25;;;;;;;33.50;18.60;;;;;;;16.69;39.21;72445.56;5017327;28;20084;-88
2021/04/12 01:53:27;;;;;;;29.10;16.88;;;;;;;16.82;38.95;72461.13;5007735;28;20044;-87
2021/04/12 01:56:17;;;;;;;31.90;18.45;;;;;;;16.67;37.42;72443.19;5054610;28;20021;-87
2021/04/12 01:58:56;;;;;;;26.30;16.08;;;;;;;17.15;35.99;72495.47;5018781;28;20475;-87
2021/04/12 02:01:57;;;;;;;24.88;15.73;;;;;;;17.13;35.74;72493.09;5031748;28;20498;-86
2021/04/12 02:04:49;;;;;;;29.70;15.75;;;;;;;16.85;35.64;72460.75;5034434;28;20034;-87
2021/04/12 02:07:28;;;;;;;21.85;13.63;;;;;;;16.40;34.33;72412.09;5035154;28;20075;-87
2021/04/12 02:10:17;;;;;;;20.38;13.30;;;;;;;17.41;34.13;72528.22;5034829;28;20021;-88
2021/04/12 02:13:02;;;;;;;22.95;13.80;;;;;;;17.54;34.55;72541.00;5036063;28;20021;-87
2021/04/12 02:15:46;;;;;;;22.77;12.43;;;;;;;16.97;35.65;72475.13;5025762;28;20033;-88
2021/04/12 02:18:42;;;;;;;24.77;13.23;;;;;;;17.33;35.82;72519.22;5033999;28;20055;-87
2021/04/12 02:21:21;;;;;;;30.23;13.73;;;;;;;17.07;36.23;72486.53;5022559;28;20026;-87
2021/04/12 02:24:16;;;;;;;19.65;14.05;;;;;;;17.21;35.10;72506.06;5018884;28;20056;-86
2021/04/12 02:26:55;;;;;;;27.45;15.70;;;;;;;17.03;36.05;72485.09;5020199;28;20033;-88
2021/04/12 02:29:57;;;;;;;25.88;13.93;;;;;;;16.99;37.37;72476.91;5024788;28;20029;-88
2021/04/12 02:32:59;;;;;;;25.45;14.68;;;;;;;17.05;36.89;72487.50;5024531;28;20040;-88
2021/04/12 02:35:38;;;;;;;19.63;13.25;;;;;;;16.42;37.69;72415.06;5031543;28;20083;-87
2021/04/12 02:38:07;;;;;;;20.52;13.18;;;;;;;16.82;38.12;72458.38;5035566;28;20025;-88
2021/04/12 02:40:34;;;;;;;25.73;14.35;;;;;;;16.66;38.85;72442.59;5034849;28;20033;-86
2021/04/12 02:43:46;;;;;;;17.10;9.95;;;;;;;16.38;39.22;72410.28;5034076;28;20064;-86
2021/04/12 02:46:23;;;;;;;25.73;13.05;;;;;;;16.51;39.22;72421.84;5007106;28;20108;-87
2021/04/12 02:48:57;;;;;;;19.58;12.57;;;;;;;16.53;39.30;72427.63;5017256;28;20030;-88
2021/04/12 02:51:32;;;;;;;25.27;12.02;;;;;;;16.36;39.94;72407.91;5007497;28;20052;-87
2021/04/12 02:54:17;;;;;;;20.67;12.02;;;;;;;16.31;39.86;72401.31;5016787;28;20033;-88
2021/04/12 02:57:14;;;;;;;23.27;13.30;;;;;;;16.15;40.23;72383.38;5017002;28;21000;-88
2021/04/12 02:59:44;;;;;;;24.17;13.18;;;;;;;16.15;40.75;72380.59;5024068;28;20025;-88
2021/04/12 03:02:47;;;;;;;24.25;15.25;;;;;;;16.32;41.92;72403.09;5034268;28;20049;-87
2021/04/12 03:05:41;;;;;;;18.80;13.57;;;;;;;16.30;40.97;72397.34;5016286;28;20039;-87
2021/04/12 03:08:30;;;;;;;22.98;11.68;;;;;;;16.25;41.87;72395.34;5022604;28;20064;-86
2021/04/12 03:10:57;;;;;;;31.70;13.05;;;;;;;16.19;42.64;72385.38;5017771;28;20033;-87
2021/04/12 03:13:45;;;;;;;24.02;11.05;;;;;;;15.00;45.04;72248.47;5017904;28;20398;-87
2021/04/12 03:16:21;;;;;;;20.15;13.25;;;;;;;15.40;45.60;72297.22;5010028;28;20029;-87
2021/04/12 03:19:01;;;;;;;23.25;13.50;;;;;;;14.81;47.94;72225.75;5033521;28;20048;-87
2021/04/12 03:22:02;;;;;;;16.95;12.00;;;;;;;15.20;47.45;72273.91;5023450;28;20032;-88
2021/04/12 03:24:33;;;;;;;15.20;10.70;;;;;;;14.70;49.53;72216.53;5033139;28;20041;-88
2021/04/12 03:27:09;;;;;;;19.00;11.32;;;;;;;14.97;50.82;72247.63;5032745;28;20056;-86
2021/04/12 03:29:54;;;;;;;21.00;11.95;;;;;;;14.88;51.02;72234.72;5032298;28;20037;-86
2021/04/12 03:32:41;;;;;;;19.83;12.70;;;;;;;14.56;52.64;72200.41;5020193;28;20084;-86
2021/04/12 03:35:23;;;;;;;18.80;12.48;;;;;;;14.32;53.48;72172.91;5032652;28;20069;-86
2021/04/12 03:38:18;;;;;;;17.85;11.00;;;;;;;14.01;52.92;72136.50;5032504;28;20065;-87
2021/04/12 03:40:59;;;;;;;19.65;12.07;;;;;;;13.16;53.73;72039.16;5020722;28;20031;-87
2021/04/12 03:43:53;;;;;;;16.90;9.77;;;;;;;14.21;53.75;72160.38;5036529;28;20382;-87
2021/04/12 03:46:46;;;;;;;13.85;10.07;;;;;;;13.88;54.29;72119.41;5005816;28;20421;-86
2021/04/12 03:49:22;;;;;;;22.67;11.00;;;;;;;14.15;55.92;72152.63;5037818;28;20022;-86
2021/04/12 03:52:11;;;;;;;18.00;10.95;;;;;;;13.87;57.68;72118.19;5022586;28;20029;-86
2021/04/12 03:55:13;;;;;;;18.25;10.88;;;;;;;13.28;58.66;72053.50;5018055;28;20041;-89
2021/04/12 03:58:21;;;;;;;22.55;11.35;;;;;;;13.52;59.81;72080.34;4978023;28;20092;-86
2021/04/12 04:01:26;;;;;;;17.33;11.02;;;;;;;13.37;60.24;72063.03;4977025;28;20042;-86
2021/04/12 04:04:30;;;;;;;19.05;12.07;;;;;;;13.28;61.21;72052.88;4964771;28;20045;-86
2021/04/12 04:07:35;;;;;;;18.33;12.23;;;;;;;13.38;63.37;72064.22;5004581;28;20033;-86
2021/04/12 04:10:17;;;;;;;17.02;11.52;;;;;;;13.28;61.67;72052.88;5016708;28;20087;-87
2021/04/12 04:13:04;;;;;;;20.70;11.88;;;;;;;13.10;63.15;72029.84;5024882;28;20491;-85
2021/04/12 04:15:54;;;;;;;15.63;9.35;;;;;;;12.25;63.07;71934.16;5021530;28;20033;-87
2021/04/12 04:18:34;;;;;;;16.88;11.07;;;;;;;12.95;62.50;72015.28;5017969;28;20066;-86
2021/04/12 04:21:07;;;;;;;18.80;10.85;;;;;;;12.96;63.11;72016.47;5012427;28;20041;-86
2021/04/12 04:23:42;;;;;;;28.50;12.18;;;;;;;12.92;63.53;72011.72;5026481;28;20044;-88
2021/04/12 04:26:24;;;;;;;22.70;12.52;;;;;;;13.06;62.66;72027.22;5016362;28;20061;-88
2021/04/12 04:29:01;;;;;;;19.80;11.70;;;;;;;12.98;64.57;72018.88;5015340;28;20029;-87
2021/04/12 04:31:49;;;;;;;22.05;13.13;;;;;;;12.79;65.76;71996.19;5029307;28;20031;-86
2021/04/12 04:34:42;;;;;;;19.23;14.18;;;;;;;12.41;67.33;71949.88;5015247;28;20030;-87
2021/04/12 04:37:24;;;;;;;19.02;14.38;;;;;;;12.39;67.50;71948.09;4985621;28;20037;-86
2021/04/12 04:40:05;;;;;;;23.25;13.23;;;;;;;12.23;68.87;71931.78;5033610;28;20028;-86
2021/04/12 04:42:53;;;;;;;19.83;13.32;;;;;;;12.17;69.64;71925.81;5032424;28;20030;-86
2021/04/12 04:46:04;;;;;;;22.08;14.18;;;;;;;12.04;69.82;71910.91;5011578;28;20025;-86
2021/04/12 04:49:04;;;;;;;30.52;15.20;;;;;;;11.99;70.77;71904.91;5018093;28;20025;-87
2021/04/12 04:51:44;;;;;;;23.07;14.53;;;;;;;11.42;69.94;71838.72;5023477;28;20513;-88
2021/04/12 04:54:16;;;;;;;23.58;12.93;;;;;;;11.77;70.16;71879.84;5026300;28;20295;-86
2021/04/12 04:56:46;;;;;;;30.35;14.75;;;;;;;11.95;70.20;71899.53;5019714;28;20124;-87
2021/04/12 04:59:19;;;;;;;24.38;14.75;;;;;;;11.80;71.95;71882.84;5031107;28;20075;-86
2021/04/12 05:02:07;;;;;;;26.67;13.85;;;;;;;11.69;71.86;71870.31;5030790;28;20053;-88
2021/04/12 05:05:06;;;;;;;30.40;13.50;;;;;;;11.58;72.03;71857.81;5029466;28;20118;-87
2021/04/12 05:07:51;;;;;;;23.05;13.65;;;;;;;11.54;72.72;71852.44;5001100;28;20073;-88
2021/04/12 05:10:33;;;;;;;23.58;14.23;;;;;;;11.50;73.33;71848.88;5014047;28;20025;-87
2021/04/12 05:13:27;;;;;;;24.08;12.25;;;;;;;11.59;73.92;71859.00;5029136;28;20152;-87
2021/04/12 05:16:00;;;;;;;26.48;13.95;;;;;;;11.54;74.76;71853.03;5030875;28;20030;-88
2021/04/12 05:18:53;;;;;;;23.20;12.85;;;;;;;11.61;74.67;71861.38;5023571;28;20041;-86
2021/04/12 05:21:58;;;;;;;20.45;14.07;;;;;;;11.67;75.03;71867.94;5019662;28;20084;-88
2021/04/12 05:24:49;;;;;;;17.48;12.15;;;;;;;11.71;75.56;71872.69;5033682;28;20113;-87
2021/04/12 05:27:38;;;;;;;14.88;12.50;;;;;;;11.25;74.61;71819.66;5018131;28;20022;-86
2021/04/12 05:30:26;;;;;;;24.98;12.32;;;;;;;11.63;72.43;71863.78;5018735;28;20030;-87
2021/04/12 05:33:14;;;;;;;12.32;10.10;;;;;;;11.46;71.80;71840.72;5018707;28;20030;-87
2021/04/12 05:36:02;;;;;;;14.05;10.27;;;;;;;11.36;71.96;71832.75;5028193;28;20549;-87
2021/04/12 05:39:02;;;;;;;18.73;12.43;;;;;;;11.38;72.86;71833.94;5032005;28;20548;-86
2021/04/12 05:41:38;;;;;;;;;;;;;;;11.28;74.83;71823.22;5028322;28;20060;-86
2021/04/12 05:44:25;;;;;;;19.92;12.25;;;;;;;11.19;72.94;71813.09;5010974;28;19913;-86
2021/04/12 05:47:03;;;;;;;21.42;11.50;;;;;;;11.18;73.64;71811.31;5011200;28;20083;-86
2021/04/12 05:49:55;;;;;;;19.13;12.05;;;;;;;11.06;75.36;71797.63;5017518;28;20025;-85
2021/04/12 05:52:51;;;;;;;20.38;12.85;;;;;;;11.13;76.90;71805.97;5017097;28;20039;-85
2021/04/12 05:55:47;;;;;;;25.05;13.20;;;;;;;9.93;76.53;71667.75;5022013;28;20037;-87
2021/04/12 05:58:14;;;;;;;22.52;14.02;;;;;;;10.74;77.82;71758.50;5034231;28;20503;-88
2021/04/12 06:00:53;;;;;;;20.73;13.70;;;;;;;10.73;79.11;71760.06;5034794;28;20484;-86
2021/04/12 06:03:52;;;;;;;20.10;13.27;;;;;;;10.59;80.55;71744.00;5036493;28;20054;-87
2021/04/12 06:06:40;;;;;;;21.30;13.05;;;;;;;10.73;80.52;71756.72;5018813;28;20033;-86
2021/04/12 06:09:21;;;;;;;23.90;14.32;;;;;;;10.79;80.86;71767.22;5022919;28;20020;-87
2021/04/12 06:12:25;;;;;;;26.27;15.50;;;;;;;10.87;80.52;71775.56;5017427;28;20026;-86
2021/04/12 06:15:24;;;;;;;26.88;14.25;;;;;;;10.86;81.37;71774.38;5035835;28;20041;-88
2021/04/12 06:18:09;;;;;;;21.52;14.30;;;;;;;10.80;81.96;71768.41;5036850;28;20058;-85
2021/04/12 06:20:54;;;;;;;20.17;12.98;;;;;;;10.81;82.24;71769.00;5022496;28;20088;-87
2021/04/12 06:24:08;;;;;;;17.27;13.32;;;;;;;10.79;82.76;71767.22;5021805;28;20172;-87
2021/04/12 06:27:04;;;;;;;24.65;15.88;;;;;;;10.86;84.14;71774.38;5034512;28;20025;-87
2021/04/12 06:30:21;;;;;;;24.23;16.33;;;;;;;10.74;84.81;71758.50;5036794;28;20049;-85
2021/04/12 06:33:35;;;;;;;23.40;16.25;;;;;;;10.88;86.66;71776.75;5025791;28;20065;-86
2021/04/12 06:36:23;;;;;;;26.52;16.67;;;;;;;10.97;86.90;71787.47;4934303;29;20043;-87
2021/04/12 06:39:08;;;;;;;28.35;17.83;;;;;;;11.05;86.68;71797.00;4947318;29;20685;-85
2021/04/12 06:42:12;;;;;;;25.70;18.27;;;;;;;11.13;86.50;71805.97;5019193;28;20036;-85
2021/04/12 06:45:15;;;;;;;30.10;19.08;;;;;;;11.22;86.54;71816.06;5007805;28;20812;-85
2021/04/12 06:48:19;;;;;;;28.23;19.13;;;;;;;11.20;87.48;71814.31;4996224;28;20505;-86
2021/04/12 06:51:10;;;;;;;26.75;20.05;;;;;;;11.16;87.57;71808.91;5007104;28;20470;-85
2021/04/12 06:54:22;;;;;;;27.77;19.42;;;;;;;11.15;87.63;71808.34;5002566;28;20036;-87
2021/04/12 06:57:10;;;;;;;31.20;17.50;;;;;;;11.06;87.76;71798.19;5019644;28;20426;-87
2021/04/12 06:59:56;;;;;;;28.38;20.08;;;;;;;10.37;88.47;71718.34;5015927;28;20080;-87
2021/04/12 07:02:41;;;;;;;27.15;19.77;;;;;;;11.03;89.97;71794.03;5014997;28;20172;-88
2021/04/12 07:05:38;;;;;;;31.25;20.92;;;;;;;11.04;89.50;71792.47;5015877;28;20040;-88
2021/04/12 07:08:46;;;;;;;27.77;19.98;;;;;;;10.77;90.45;71764.81;5017830;28;20128;-88
2021/04/12 07:11:28;;;;;;;26.17;17.90;;;;;;;10.76;91.22;71760.31;5014729;28;20060;-87
2021/04/12 07:14:10;;;;;;;24.52;17.95;;;;;;;10.74;91.84;71758.50;5017139;28;20084;-85
2021/04/12 07:17:01;;;;;;;25.80;18.77;;;;;;;10.82;92.24;71770.78;5033767;28;20063;-89
2021/04/12 07:20:05;;;;;;;22.95;18.63;;;;;;;10.78;92.77;71765.44;5023501;28;20041;-87
2021/04/12 07:23:13;;;;;;;22.52;17.55;;;;;;;10.53;92.59;71737.44;5011131;28;20494;-87
2021/04/12 07:25:58;;;;;;;26.05;18.42;;;;;;;10.75;93.16;71759.69;5008611;28;20034;-88
2021/04/12 07:28:50;;;;;;;27.17;17.90;;;;;;;10.76;92.79;71763.63;5006597;28;20034;-87
2021/04/12 07:31:48;;;;;;;24.23;17.10;;;;;;;10.84;92.90;71769.22;5013845;28;20057;-86
2021/04/12 07:34:57;;;;;;;26.13;17.88;;;;;;;10.96;92.99;71786.28;5012906;28;20055;-86
2021/04/12 07:37:48;;;;;;;20.77;13.33;;;;;;;10.14;92.56;71692.16;5009900;28;20037;-86
2021/04/12 07:40:59;;;;;;;20.73;17.77;;;;;;;10.67;92.66;71753.53;5002658;28;20070;-86
2021/04/12 07:43:31;;;;;;;22.95;15.82;;;;;;;10.94;92.21;71783.91;4994530;28;20184;-86
2021/04/12 07:46:26;;;;;;;19.73;15.65;;;;;;;10.97;92.83;71786.88;5025385;28;20059;-87
2021/04/12 07:49:14;;;;;;;22.80;14.95;;;;;;;10.98;92.42;71785.91;5031897;28;20029;-87
2021/04/12 07:52:06;;;;;;;19.45;15.15;;;;;;;10.51;91.52;71734.44;5031668;28;20049;-87
2021/04/12 07:55:23;;;;;;;22.55;15.40;;;;;;;10.97;92.62;71787.47;5020042;28;20022;-87
2021/04/12 07:57:52;;;;;;;24.17;16.50;;;;;;;10.97;92.92;71786.88;5035239;28;20064;-85
2021/04/12 08:00:25;;;;;;;22.88;16.27;;;;;;;11.00;93.56;71791.03;5035888;28;20081;-86
2021/04/12 08:03:02;;;;;;;30.60;18.33;;;;;;;11.05;93.13;71797.00;5037978;28;20041;-88
2021/04/12 08:05:53;;;;;;;21.17;15.98;;;;;;;10.99;93.63;71789.84;5033641;28;20052;-88
2021/04/12 08:08:55;;;;;;;22.70;16.52;;;;;;;10.95;94.00;71785.09;5035014;28;20037;-86
2021/04/12 08:11:58;;;;;;;23.85;17.45;;;;;;;11.02;94.73;71792.84;5040617;28;20128;-87
2021/04/12 08:14:52;;;;;;;25.77;17.52;;;;;;;11.01;94.19;71791.66;5044213;28;20033;-86
2021/04/12 08:17:48;;;;;;;26.90;17.10;;;;;;;10.97;94.16;71784.13;5022447;28;20081;-89
2021/04/12 08:20:54;;;;;;;26.75;17.27;;;;;;;10.98;94.65;71788.09;5019692;28;20077;-87
2021/04/12 08:23:52;;;;;;;23.95;17.67;;;;;;;10.98;94.57;71785.91;5021872;28;20034;-88
2021/04/12 08:26:56;;;;;;;25.77;17.90;;;;;;;10.92;94.92;71778.75;5032950;28;20065;-85
2021/04/12 08:29:57;;;;;;;21.75;18.20;;;;;;;11.01;95.75;71791.66;5015844;28;20033;-88
2021/04/12 08:33:06;;;;;;;24.83;18.80;;;;;;;10.93;95.81;71782.69;5039924;28;20034;-89
2021/04/12 08:35:48;;;;;;;28.58;19.35;;;;;;;10.93;96.40;71782.69;5027196;28;20044;-86
2021/04/12 08:38:37;;;;;;;28.02;19.65;;;;;;;10.98;96.58;71788.66;5013697;28;20088;-86
2021/04/12 08:41:33;;;;;;;28.05;20.75;;;;;;;10.93;96.49;71779.94;5009935;28;20032;-86
2021/04/12 08:44:37;;;;;;;26.20;21.08;;;;;;;10.90;96.68;71779.75;5012281;28;20068;-83
2021/04/12 08:47:03;;;;;;;27.67;21.40;;;;;;;10.57;97.03;71738.84;5021316;28;20030;-86
2021/04/12 08:49:43;;;;;;;31.60;19.70;;;;;;;10.97;97.01;71787.47;5002906;28;20026;-86
2021/04/12 08:52:28;;;;;;;28.73;20.38;;;;;;;10.61;97.03;71745.75;5009706;28;20094;-91
2021/04/12 08:55:31;;;;;;;23.88;20.55;;;;;;;10.95;97.31;71785.09;5026311;28;20360;-93
2021/04/12 08:58:21;;;;;;;28.83;20.70;;;;;;;10.93;98.19;71782.69;5031613;28;20037;-92
2021/04/12 09:01:26;;;;;;;31.50;23.67;;;;;;;10.88;98.42;71776.75;4969256;29;20038;-93
2021/04/12 09:04:30;;;;;;;25.15;22.35;;;;;;;10.91;98.39;71777.56;5010507;28;20049;-93
2021/04/12 09:10:01;;;;;;;28.88;24.48;;;;;;;10.92;99.16;71781.50;5493318;23;20045;-95
2021/04/12 09:12:39;;;;;;;28.75;23.15;;;;;;;10.42;99.15;71724.34;5020440;28;20499;-88
2021/04/12 09:15:21;;;;;;;34.58;25.02;;;;;;;10.88;99.62;71774.00;5014903;28;20030;-90
2021/04/12 09:17:55;;;;;;;34.05;24.88;;;;;;;10.90;99.74;71779.13;5009641;28;20081;-92
2021/04/12 09:20:34;;;;;;;32.92;24.95;;;;;;;10.26;100.00;71700.94;5029578;28;20129;-95
2021/04/12 09:23:22;;;;;;;28.60;25.45;;;;;;;10.86;100.00;71774.97;5022632;28;20036;-91
2021/04/12 09:26:08;;;;;;;28.85;23.70;;;;;;;10.91;100.00;71780.31;5027845;28;20057;-88
2021/04/12 09:29:01;;;;;;;33.33;27.67;;;;;;;10.90;100.00;71779.75;5003747;28;20411;-85
2021/04/12 09:31:46;;;;;;;33.40;26.38;;;;;;;10.35;100.00;71715.97;4997694;28;20390;-89
2021/04/12 09:34:37;;;;;;;34.60;27.40;;;;;;;10.85;100.00;71773.78;5015902;28;20030;-88
2021/04/12 09:37:34;;;;;;;34.97;28.30;;;;;;;10.93;100.00;71780.56;5021963;28;20029;-91
2021/04/12 09:40:10;;;;;;;33.08;29.38;;;;;;;10.92;100.00;71781.50;5017849;28;20427;-90
2021/04/12 09:43:03;;;;;;;33.17;27.85;;;;;;;10.95;100.00;71785.69;5019132;28;20030;-94
2021/04/12 09:45:59;;;;;;;34.47;29.20;;;;;;;10.92;100.00;71781.50;5023155;28;20049;-92
2021/04/12 09:48:44;;;;;;;35.08;29.75;;;;;;;10.93;100.00;71782.69;5044286;28;20041;-91
2021/04/12 09:51:39;;;;;;;38.70;31.20;;;;;;;10.94;100.00;71784.50;5058454;28;20039;-92
2021/04/12 09:54:27;;;;;;;35.45;30.73;;;;;;;10.95;100.00;71782.34;5024876;28;20033;-91
2021/04/12 09:57:34;;;;;;;37.13;31.88;;;;;;;10.95;100.00;71785.09;5023697;28;20029;-89
2021/04/12 10:00:22;;;;;;;37.60;33.03;;;;;;;11.01;100.00;71792.25;5013527;28;20057;-89
2021/04/12 10:03:25;;;;;;;40.65;33.53;;;;;;;11.01;100.00;71791.66;5032229;28;20028;-84
2021/04/12 10:06:28;;;;;;;38.47;30.50;;;;;;;11.04;100.00;71795.81;5022794;28;20108;-83
2021/04/12 10:09:23;;;;;;;37.55;31.50;;;;;;;11.08;100.00;71800.59;5015333;28;20056;-84
2021/04/12 10:12:09;;;;;;;38.80;32.28;;;;;;;11.01;100.00;71792.25;5034699;28;20021;-77
2021/04/12 10:15:06;;;;;;;44.60;35.70;;;;;;;11.11;100.00;71800.81;5019142;28;20041;-83
2021/04/12 10:17:36;;;;;;;45.78;36.45;;;;;;;11.14;100.00;71806.53;5028309;28;20017;-81
2021/04/12 10:20:09;;;;;;;49.30;37.63;;;;;;;10.92;100.00;71781.50;5032618;28;20357;-82
2021/04/12 10:22:53;;;;;;;46.05;40.88;;;;;;;11.18;100.00;71811.31;5030020;28;20045;-80
2021/04/12 10:25:55;;;;;;;46.00;40.65;;;;;;;10.82;100.00;71770.78;5026311;28;20088;-82
2021/04/12 10:28:29;;;;;;;50.05;42.17;;;;;;;11.23;100.00;71817.88;4936717;29;20024;-83
2021/04/12 10:31:18;;;;;;;50.40;43.80;;;;;;;10.81;100.00;71769.59;5019337;28;20107;-82
2021/04/12 10:33:59;;;;;;;61.65;47.72;;;;;;;10.97;100.00;71787.47;5034336;28;20034;-81
2021/04/12 10:36:31;;;;;;;53.80;47.42;;;;;;;10.64;100.00;71744.44;5011623;28;20493;-84
2021/04/12 10:39:24;;;;;;;57.85;48.22;;;;;;;11.24;100.00;71818.47;5020571;28;20032;-87
2021/04/12 10:42:04;;;;;;;59.53;45.45;;;;;;;10.77;100.00;71764.81;5014357;28;20068;-87
2021/04/12 10:45:06;;;;;;;59.83;49.13;;;;;;;11.06;100.00;71797.63;5011248;28;20040;-87
2021/04/12 10:47:49;;;;;;;63.00;53.45;;;;;;;11.27;100.00;71822.03;5006011;28;20037;-85
2021/04/12 10:50:19;;;;;;;59.45;49.58;;;;;;;11.31;100.00;71826.81;5016851;28;20194;-87
2021/04/12 10:53:23;;;;;;;61.92;51.38;;;;;;;11.29;100.00;71823.84;5017992;28;20041;-87
2021/04/12 10:56:12;;;;;;;54.42;45.30;;;;;;;11.34;100.00;71824.28;5017324;28;20067;-86
2021/04/12 10:58:45;;;;;;;54.05;47.10;;;;;;;11.39;100.00;71835.75;5027699;28;20021;-86
2021/04/12 11:01:41;;;;;;;50.45;44.67;;;;;;;10.49;100.00;71732.66;5019821;28;20052;-86
2021/04/12 11:04:28;;;;;;;49.53;41.55;;;;;;;10.37;100.00;71718.34;5016867;28;20083;-87
2021/04/12 11:07:23;;;;;;;45.70;38.58;;;;;;;11.42;100.00;71833.22;5013028;28;20021;-87
2021/04/12 11:10:07;;;;;;;41.75;37.15;;;;;;;11.42;100.00;71835.97;5018910;28;20490;-85
2021/04/12 11:13:02;;;;;;;44.88;36.33;;;;;;;11.26;100.00;71820.84;5009770;28;20033;-85
2021/04/12 11:15:37;;;;;;;48.22;36.97;;;;;;;11.44;100.00;71841.09;5030752;28;20394;-86
2021/04/12 11:18:25;;;;;;;40.75;36.10;;;;;;;11.48;100.00;71846.47;5013583;28;20415;-85
2021/04/12 11:20:59;;;;;;;35.53;31.73;;;;;;;10.79;100.00;71767.22;5009073;28;20372;-84
2021/04/12 11:23:51;;;;;;;43.75;34.83;;;;;;;10.81;100.00;71769.59;5030866;28;20542;-84
2021/04/12 11:26:43;;;;;;;41.90;34.63;;;;;;;11.48;100.00;71845.88;5010047;28;20058;-84
2021/04/12 11:29:22;;;;;;;37.85;32.10;;;;;;;11.49;100.00;71844.31;5027503;28;20513;-85
2021/04/12 11:32:07;;;;;;;43.47;35.30;;;;;;;11.46;100.00;71843.47;5015170;28;20028;-86
2021/04/12 11:34:41;;;;;;;35.03;31.25;;;;;;;11.30;100.00;71825.59;5016517;28;20111;-85
2021/04/12 11:37:41;;;;;;;38.00;33.75;;;;;;;11.49;100.00;71847.06;5035833;28;20087;-83
2021/04/12 11:40:31;;;;;;;39.25;34.95;;;;;;;11.26;100.00;71820.84;5021120;28;20037;-85
2021/04/12 11:43:07;;;;;;;41.10;36.73;;;;;;;10.29;100.00;71708.81;5036759;28;20033;-84
2021/04/12 11:45:42;;;;;;;41.10;36.58;;;;;;;10.48;100.00;71731.47;5024607;28;20339;-85
2021/04/12 11:48:19;;;;;;;39.72;34.85;;;;;;;11.43;100.00;71837.78;5026392;28;20233;-85
2021/04/12 11:50:59;;;;;;;43.60;35.97;;;;;;;10.97;100.00;71787.47;5014153;28;20025;-82
2021/04/12 11:53:37;;;;;;;;;;;;;;;11.51;100.00;71849.44;5023750;28;20026;-85
2021/04/12 11:56:23;;;;;;;39.88;33.70;;;;;;;11.51;100.00;71849.44;5023817;28;20401;-86
2021/04/12 11:59:01;;;;;;;46.53;39.00;;;;;;;10.40;100.00;71721.91;5012603;28;20029;-85
2021/04/12 12:01:54;;;;;;;47.45;37.90;;;;;;;11.53;100.00;71849.06;5010797;28;20067;-84
2021/04/12 12:05:19;;;;;;;46.50;38.65;;;;;;;10.80;100.00;71768.41;5031176;28;20100;-84
2021/04/12 12:08:19;;;;;;;54.05;41.28;;;;;;;10.16;100.00;71694.53;4916134;29;20039;-86
2021/04/12 12:10:55;;;;;;;47.90;40.35;;;;;;;11.54;100.00;71853.03;4930034;29;20533;-85
2021/04/12 12:13:41;;;;;;;49.28;40.17;;;;;;;11.58;100.00;71857.22;5011145;28;20096;-86
2021/04/12 12:16:23;;;;;;;48.53;42.22;;;;;;;11.58;100.00;71855.03;5034492;28;20029;-85
2021/04/12 12:19:08;;;;;;;54.58;41.60;;;;;;;11.10;100.00;71799.63;5001767;28;20029;-85
2021/04/12 12:22:01;;;;;;;46.72;37.92;;;;;;;11.70;100.00;71870.94;5028144;28;20034;-85
2021/04/12 12:24:43;;;;;;;51.33;42.10;;;;;;;11.73;100.00;71875.09;4998042;28;20063;-83
2021/04/12 12:27:10;;;;;;;55.85;43.90;;;;;;;11.71;100.00;71869.38;5004325;28;20021;-84
2021/04/12 12:29:50;;;;;;;51.47;42.33;;;;;;;10.85;100.00;71773.16;5034076;28;20025;-86
2021/04/12 12:32:21;;;;;;;50.88;41.92;;;;;;;11.51;100.00;71849.44;5012147;28;20060;-85
2021/04/12 12:35:08;;;;;;;55.47;44.20;;;;;;;11.77;100.00;71874.34;5013336;28;20030;-85
2021/04/12 12:37:45;;;;;;;50.03;38.38;;;;;;;11.29;100.00;71824.41;5017093;28;20032;-86
2021/04/12 12:40:41;;;;;;;50.17;39.22;;;;;;;11.68;100.00;71866.38;5010357;28;20029;-84
2021/04/12 12:43:14;;;;;;;45.30;34.85;;;;;;;11.46;100.00;71843.47;4982098;28;20038;-88
2021/04/12 12:45:42;;;;;;;44.88;37.22;;;;;;;11.32;100.00;71828.00;5020133;28;20506;-87
2021/04/12 12:48:23;;;;;;;40.53;33.47;;;;;;;11.77;100.00;71879.28;5024109;28;20733;-85
2021/04/12 12:50:55;;;;;;;41.70;33.30;;;;;;;11.89;100.00;71893.56;5045943;28;20020;-86
2021/04/12 12:53:37;;;;;;;33.63;29.17;;;;;;;11.59;100.00;71859.00;5038571;28;20029;-86